createdAt,value
2018-06-27T00:00:57.533Z,0.00
2018-06-27T00:01:57.554Z,0.00
2018-06-27T00:02:57.572Z,0.00
2018-06-27T00:03:57.591Z,0.00
2018-06-27T00:04:57.612Z,0.00
2018-06-27T00:05:57.632Z,0.00
2018-06-27T00:06:57.651Z,0.00
2018-06-27T00:07:57.667Z,0.00
2018-06-27T00:08:57.690Z,0.00
2018-06-27T00:09:57.709Z,0.00
2018-06-27T00:10:57.728Z,0.00
2018-06-27T00:12:00.804Z,0.00
2018-06-27T00:12:57.771Z,0.00
2018-06-27T00:13:57.784Z,0.00
2018-06-27T00:14:57.807Z,0.00
2018-06-27T00:15:57.825Z,0.00
2018-06-27T00:16:57.842Z,0.00
2018-06-27T00:17:57.864Z,0.00
2018-06-27T00:18:57.882Z,0.00
2018-06-27T00:19:57.901Z,0.00
2018-06-27T00:20:57.923Z,0.00
2018-06-27T00:21:57.939Z,0.00
2018-06-27T00:22:57.959Z,0.00
2018-06-27T00:23:57.980Z,0.00
2018-06-27T00:24:57.997Z,0.00
2018-06-27T00:25:58.023Z,0.00
2018-06-27T00:26:58.037Z,0.00
2018-06-27T00:27:58.059Z,0.00
2018-06-27T00:28:58.078Z,0.00
2018-06-27T00:29:58.095Z,0.00
2018-06-27T00:30:58.115Z,0.00
2018-06-27T00:31:58.133Z,0.00
2018-06-27T00:32:58.155Z,0.00
2018-06-27T00:33:58.384Z,0.00
2018-06-27T00:34:58.198Z,0.00
2018-06-27T00:35:58.211Z,0.00
2018-06-27T00:36:58.231Z,0.00
2018-06-27T00:37:58.250Z,0.00
2018-06-27T00:38:58.269Z,0.00
2018-06-27T00:39:58.290Z,0.00
2018-06-27T00:40:58.311Z,0.00
2018-06-27T00:41:58.330Z,0.00
2018-06-27T00:42:58.347Z,0.00
2018-06-27T00:43:58.368Z,0.00
2018-06-27T00:44:58.389Z,0.00
2018-06-27T00:45:58.407Z,0.00
2018-06-27T00:46:58.428Z,0.00
2018-06-27T00:47:58.444Z,0.00
2018-06-27T00:48:58.462Z,0.00
2018-06-27T00:49:58.487Z,0.00
2018-06-27T00:50:58.506Z,0.00
2018-06-27T00:51:58.519Z,0.00
2018-06-27T00:52:58.538Z,0.00
2018-06-27T00:53:58.562Z,0.00
2018-06-27T00:54:58.581Z,0.00
2018-06-27T00:55:58.597Z,0.00
2018-06-27T00:56:58.620Z,0.00
2018-06-27T00:57:58.639Z,0.00
2018-06-27T00:58:58.656Z,0.00
2018-06-27T00:59:58.677Z,0.00
2018-06-27T01:00:58.697Z,0.00
2018-06-27T01:01:58.716Z,0.00
2018-06-27T01:02:58.732Z,0.00
2018-06-27T01:03:58.752Z,0.00
2018-06-27T01:04:58.772Z,0.00
2018-06-27T01:05:58.790Z,0.00
2018-06-27T01:06:58.809Z,0.00
2018-06-27T01:07:58.830Z,0.00
2018-06-27T01:08:58.847Z,0.00
2018-06-27T01:09:58.872Z,0.00
2018-06-27T01:10:58.886Z,0.00
2018-06-27T01:11:58.904Z,0.00
2018-06-27T01:12:58.924Z,0.00
2018-06-27T01:13:58.947Z,0.00
2018-06-27T01:14:58.967Z,0.00
2018-06-27T01:15:58.983Z,0.00
2018-06-27T01:16:59.001Z,0.00
2018-06-27T01:17:59.022Z,0.00
2018-06-27T01:18:59.039Z,0.00
2018-06-27T01:19:59.061Z,0.00
2018-06-27T01:20:59.079Z,0.00
2018-06-27T01:21:59.098Z,0.00
2018-06-27T01:22:59.116Z,0.00
2018-06-27T01:23:59.137Z,0.00
2018-06-27T01:24:59.157Z,0.00
2018-06-27T01:25:59.176Z,0.00
2018-06-27T01:26:59.193Z,0.00
2018-06-27T01:27:59.214Z,0.00
2018-06-27T01:28:59.235Z,0.00
2018-06-27T01:29:59.250Z,0.00
2018-06-27T01:30:59.271Z,0.00
2018-06-27T01:31:59.288Z,0.00
2018-06-27T01:32:59.309Z,0.00
2018-06-27T01:33:59.331Z,0.00
2018-06-27T01:34:59.345Z,0.00
2018-06-27T01:35:59.367Z,0.00
2018-06-27T01:36:59.389Z,0.00
2018-06-27T01:37:59.403Z,0.00
2018-06-27T01:38:59.423Z,0.00
2018-06-27T01:39:59.444Z,0.00
2018-06-27T01:40:59.460Z,0.00
2018-06-27T01:41:59.483Z,0.00
2018-06-27T01:42:59.499Z,0.00
2018-06-27T01:43:59.521Z,0.00
2018-06-27T01:44:59.537Z,0.00
2018-06-27T01:45:59.558Z,0.00
2018-06-27T01:46:59.578Z,0.00
2018-06-27T01:47:59.597Z,0.00
2018-06-27T01:48:59.616Z,0.00
2018-06-27T01:49:59.639Z,0.00
2018-06-27T01:50:59.655Z,0.00
2018-06-27T01:51:59.674Z,0.00
2018-06-27T01:52:59.692Z,0.00
2018-06-27T01:53:59.711Z,0.00
2018-06-27T01:54:59.727Z,0.00
2018-06-27T01:55:59.750Z,0.00
2018-06-27T01:56:59.767Z,0.00
2018-06-27T01:57:59.787Z,0.00
2018-06-27T01:58:59.807Z,0.00
2018-06-27T01:59:59.826Z,0.00
2018-06-27T02:00:59.841Z,0.00
2018-06-27T02:01:59.862Z,0.00
2018-06-27T02:02:59.880Z,0.00
2018-06-27T02:03:59.897Z,0.00
2018-06-27T02:04:59.926Z,0.00
2018-06-27T02:05:59.942Z,0.00
2018-06-27T02:06:59.959Z,0.00
2018-06-27T02:07:59.976Z,0.00
2018-06-27T02:08:59.996Z,0.00
2018-06-27T02:10:00.028Z,0.00
2018-06-27T02:11:00.037Z,0.00
2018-06-27T02:12:00.054Z,0.00
2018-06-27T02:13:00.070Z,0.00
2018-06-27T02:14:00.092Z,0.00
2018-06-27T02:15:00.112Z,0.00
2018-06-27T02:16:00.129Z,0.00
2018-06-27T02:17:00.147Z,0.00
2018-06-27T02:18:00.167Z,0.00
2018-06-27T02:19:00.188Z,0.00
2018-06-27T02:20:00.202Z,0.00
2018-06-27T02:21:00.224Z,0.00
2018-06-27T02:22:00.243Z,0.00
2018-06-27T02:23:00.260Z,0.00
2018-06-27T02:24:00.280Z,0.00
2018-06-27T02:25:00.299Z,0.00
2018-06-27T02:26:00.317Z,0.00
2018-06-27T02:27:00.339Z,0.00
2018-06-27T02:28:00.354Z,0.00
2018-06-27T02:29:00.375Z,0.00
2018-06-27T02:30:00.396Z,0.00
2018-06-27T02:31:00.412Z,0.00
2018-06-27T02:32:00.432Z,0.00
2018-06-27T02:33:00.454Z,0.00
2018-06-27T02:34:00.471Z,0.00
2018-06-27T02:35:00.490Z,0.00
2018-06-27T02:36:00.508Z,0.00
2018-06-27T02:37:00.526Z,0.00
2018-06-27T02:38:00.550Z,0.00
2018-06-27T02:39:00.566Z,0.00
2018-06-27T02:40:00.581Z,0.00
2018-06-27T02:41:00.604Z,0.00
2018-06-27T02:42:00.622Z,0.00
2018-06-27T02:43:00.641Z,0.00
2018-06-27T02:44:00.657Z,0.00
2018-06-27T02:45:00.676Z,0.00
2018-06-27T02:46:00.696Z,0.00
2018-06-27T02:47:00.718Z,0.00
2018-06-27T02:48:00.732Z,0.00
2018-06-27T02:49:00.751Z,0.00
2018-06-27T02:50:00.776Z,0.00
2018-06-27T02:51:00.790Z,0.00
2018-06-27T02:52:00.809Z,0.00
2018-06-27T02:53:00.832Z,0.00
2018-06-27T02:54:00.848Z,0.00
2018-06-27T02:55:00.870Z,0.00
2018-06-27T02:56:00.886Z,0.00
2018-06-27T02:57:00.903Z,0.00
2018-06-27T02:58:00.922Z,0.00
2018-06-27T02:59:00.943Z,0.00
2018-06-27T03:00:00.961Z,0.00
2018-06-27T03:01:00.977Z,0.00
2018-06-27T03:02:00.997Z,0.00
2018-06-27T03:03:01.020Z,0.00
2018-06-27T03:04:01.036Z,0.00
2018-06-27T03:05:01.056Z,0.00
2018-06-27T03:06:01.072Z,0.00
2018-06-27T03:07:01.095Z,0.00
2018-06-27T03:08:01.109Z,0.00
2018-06-27T03:09:01.129Z,5.63
2018-06-27T03:10:01.150Z,5.63
2018-06-27T03:11:01.169Z,5.63
2018-06-27T03:12:01.187Z,5.63
2018-06-27T03:13:01.207Z,5.63
2018-06-27T03:14:01.227Z,5.63
2018-06-27T03:15:01.244Z,5.63
2018-06-27T03:16:01.259Z,5.63
2018-06-27T03:17:01.285Z,5.63
2018-06-27T03:18:01.304Z,5.63
2018-06-27T03:19:01.317Z,5.63
2018-06-27T03:20:01.343Z,11.25
2018-06-27T03:21:01.360Z,11.25
2018-06-27T03:22:01.376Z,11.25
2018-06-27T03:23:01.394Z,11.25
2018-06-27T03:24:01.413Z,11.25
2018-06-27T03:25:01.428Z,11.25
2018-06-27T03:26:01.449Z,11.25
2018-06-27T03:27:01.465Z,11.25
2018-06-27T03:28:01.487Z,16.88
2018-06-27T03:29:01.511Z,16.88
2018-06-27T03:30:01.529Z,16.88
2018-06-27T03:31:01.551Z,16.88
2018-06-27T03:32:01.565Z,16.88
2018-06-27T03:33:01.582Z,16.88
2018-06-27T03:34:01.602Z,16.88
2018-06-27T03:35:01.625Z,22.50
2018-06-27T03:36:01.637Z,22.50
2018-06-27T03:37:01.656Z,22.50
2018-06-27T03:38:01.675Z,22.50
2018-06-27T03:39:01.696Z,22.50
2018-06-27T03:40:01.710Z,22.50
2018-06-27T03:41:01.733Z,28.13
2018-06-27T03:42:01.751Z,28.13
2018-06-27T03:43:01.768Z,28.13
2018-06-27T03:44:01.784Z,28.13
2018-06-27T03:45:01.808Z,28.13
2018-06-27T03:46:01.824Z,33.75
2018-06-27T03:47:01.842Z,33.75
2018-06-27T03:48:01.862Z,33.75
2018-06-27T03:49:01.882Z,33.75
2018-06-27T03:50:01.897Z,33.75
2018-06-27T03:51:01.919Z,33.75
2018-06-27T03:52:01.937Z,39.38
2018-06-27T03:53:01.954Z,39.38
2018-06-27T03:54:01.977Z,39.38
2018-06-27T03:55:01.994Z,39.38
2018-06-27T03:56:02.015Z,39.38
2018-06-27T03:57:02.029Z,45.00
2018-06-27T03:58:02.049Z,45.00
2018-06-27T03:59:02.139Z,45.00
2018-06-27T04:00:02.086Z,45.00
2018-06-27T04:01:02.104Z,45.00
2018-06-27T04:02:02.124Z,50.63
2018-06-27T04:03:02.146Z,50.63
2018-06-27T04:04:02.160Z,50.63
2018-06-27T04:05:02.185Z,50.63
2018-06-27T04:06:02.199Z,50.63
2018-06-27T04:07:02.221Z,56.25
2018-06-27T04:08:02.239Z,56.25
2018-06-27T04:09:02.257Z,56.25
2018-06-27T04:10:02.274Z,56.25
2018-06-27T04:11:02.299Z,56.25
2018-06-27T04:12:02.314Z,61.88
2018-06-27T04:13:02.488Z,61.88
2018-06-27T04:14:02.348Z,61.88
2018-06-27T04:15:02.373Z,61.88
2018-06-27T04:16:02.388Z,61.88
2018-06-27T04:17:02.406Z,67.50
2018-06-27T04:18:02.425Z,67.50
2018-06-27T04:19:02.446Z,67.50
2018-06-27T04:20:02.476Z,67.50
2018-06-27T04:21:02.510Z,67.50
2018-06-27T04:22:02.502Z,73.13
2018-06-27T04:23:02.520Z,73.13
2018-06-27T04:24:02.540Z,73.13
2018-06-27T04:25:02.559Z,73.13
2018-06-27T04:26:02.575Z,73.13
2018-06-27T04:27:02.597Z,78.75
2018-06-27T04:28:02.615Z,78.75
2018-06-27T04:29:02.634Z,78.75
2018-06-27T04:30:02.653Z,78.75
2018-06-27T04:31:02.670Z,78.75
2018-06-27T04:32:02.689Z,78.75
2018-06-27T04:33:02.709Z,84.38
2018-06-27T04:34:02.725Z,84.38
2018-06-27T04:35:02.749Z,84.38
2018-06-27T04:36:02.791Z,84.38
2018-06-27T04:37:02.782Z,84.38
2018-06-27T04:38:02.802Z,90.00
2018-06-27T04:39:02.821Z,90.00
2018-06-27T04:40:02.843Z,90.00
2018-06-27T04:41:02.862Z,95.63
2018-06-27T04:42:02.881Z,101.25
2018-06-27T04:43:02.915Z,101.25
2018-06-27T04:44:02.916Z,95.63
2018-06-27T04:45:02.937Z,95.63
2018-06-27T04:46:02.956Z,95.63
2018-06-27T04:47:02.975Z,101.25
2018-06-27T04:48:02.995Z,101.25
2018-06-27T04:49:03.013Z,101.25
2018-06-27T04:50:03.030Z,106.88
2018-06-27T04:51:03.055Z,106.88
2018-06-27T04:52:03.068Z,112.50
2018-06-27T04:53:03.087Z,118.13
2018-06-27T04:54:03.109Z,123.75
2018-06-27T04:55:03.127Z,129.38
2018-06-27T04:56:03.145Z,129.38
2018-06-27T04:57:03.164Z,129.38
2018-06-27T04:58:03.185Z,135.00
2018-06-27T04:59:03.203Z,135.00
2018-06-27T05:00:03.221Z,135.00
2018-06-27T05:01:03.242Z,140.63
2018-06-27T05:02:03.263Z,140.63
2018-06-27T05:03:03.280Z,146.25
2018-06-27T05:04:03.301Z,146.25
2018-06-27T05:05:03.320Z,146.25
2018-06-27T05:06:03.339Z,146.25
2018-06-27T05:07:03.360Z,146.25
2018-06-27T05:08:03.375Z,151.88
2018-06-27T05:09:03.396Z,151.88
2018-06-27T05:10:03.416Z,151.88
2018-06-27T05:11:03.439Z,151.88
2018-06-27T05:12:03.460Z,151.88
2018-06-27T05:13:03.476Z,157.50
2018-06-27T05:14:03.497Z,157.50
2018-06-27T05:15:03.512Z,157.50
2018-06-27T05:16:03.579Z,163.13
2018-06-27T05:17:03.554Z,163.13
2018-06-27T05:18:03.573Z,163.13
2018-06-27T05:19:03.595Z,168.75
2018-06-27T05:20:03.614Z,168.75
2018-06-27T05:21:03.631Z,168.75
2018-06-27T05:22:03.652Z,168.75
2018-06-27T05:23:03.674Z,174.38
2018-06-27T05:24:03.692Z,174.38
2018-06-27T05:25:03.710Z,174.38
2018-06-27T05:26:03.733Z,180.00
2018-06-27T05:27:03.752Z,180.00
2018-06-27T05:28:03.771Z,185.63
2018-06-27T05:29:03.789Z,185.63
2018-06-27T05:30:03.810Z,191.25
2018-06-27T05:31:03.832Z,191.25
2018-06-27T05:32:03.853Z,196.88
2018-06-27T05:33:03.871Z,196.88
2018-06-27T05:34:03.892Z,196.88
2018-06-27T05:35:03.911Z,202.50
2018-06-27T05:36:03.934Z,208.13
2018-06-27T05:37:03.952Z,208.13
2018-06-27T05:38:03.975Z,213.75
2018-06-27T05:39:03.992Z,213.75
2018-06-27T05:40:04.035Z,219.38
2018-06-27T05:41:04.035Z,219.38
2018-06-27T05:42:04.056Z,219.38
2018-06-27T05:43:04.074Z,219.38
2018-06-27T05:44:04.096Z,225.00
2018-06-27T05:45:04.119Z,230.63
2018-06-27T05:46:04.138Z,230.63
2018-06-27T05:47:04.161Z,230.63
2018-06-27T05:48:04.178Z,236.25
2018-06-27T05:49:04.199Z,241.88
2018-06-27T05:50:04.220Z,247.50
2018-06-27T05:51:04.243Z,253.13
2018-06-27T05:52:04.260Z,258.75
2018-06-27T05:53:04.282Z,264.38
2018-06-27T05:54:04.306Z,270.00
2018-06-27T05:55:04.325Z,275.63
2018-06-27T05:56:04.345Z,281.25
2018-06-27T05:57:04.368Z,281.25
2018-06-27T05:58:04.405Z,286.88
2018-06-27T05:59:04.412Z,286.88
2018-06-27T06:00:04.433Z,292.50
2018-06-27T06:01:04.452Z,292.50
2018-06-27T06:02:04.475Z,298.13
2018-06-27T06:03:04.496Z,298.13
2018-06-27T06:04:04.518Z,303.75
2018-06-27T06:05:04.538Z,303.75
2018-06-27T06:06:04.559Z,309.38
2018-06-27T06:07:04.581Z,315.00
2018-06-27T06:08:04.604Z,320.63
2018-06-27T06:09:04.621Z,326.25
2018-06-27T06:10:04.644Z,331.88
2018-06-27T06:11:04.669Z,337.50
2018-06-27T06:12:04.689Z,343.13
2018-06-27T06:13:04.713Z,348.75
2018-06-27T06:14:04.732Z,348.75
2018-06-27T06:15:04.756Z,360.00
2018-06-27T06:16:04.776Z,371.25
2018-06-27T06:17:04.799Z,376.88
2018-06-27T06:18:04.817Z,393.75
2018-06-27T06:19:04.840Z,405.00
2018-06-27T06:20:04.864Z,433.13
2018-06-27T06:21:04.884Z,444.38
2018-06-27T06:22:04.909Z,472.50
2018-06-27T06:23:04.929Z,506.25
2018-06-27T06:24:04.949Z,562.50
2018-06-27T06:25:04.975Z,646.88
2018-06-27T06:26:04.995Z,748.13
2018-06-27T06:27:05.020Z,815.63
2018-06-27T06:28:05.039Z,798.75
2018-06-27T06:29:05.064Z,798.75
2018-06-27T06:30:05.088Z,815.63
2018-06-27T06:31:05.110Z,849.38
2018-06-27T06:32:05.141Z,905.63
2018-06-27T06:33:05.156Z,961.88
2018-06-27T06:34:05.176Z,1057.50
2018-06-27T06:35:05.199Z,1158.75
2018-06-27T06:36:05.219Z,1355.63
2018-06-27T06:37:05.242Z,1445.63
2018-06-27T06:38:05.270Z,1473.75
2018-06-27T06:39:05.293Z,1575.00
2018-06-27T06:40:05.311Z,1597.50
2018-06-27T06:41:05.336Z,1530.00
2018-06-27T06:42:05.359Z,1411.88
2018-06-27T06:43:05.380Z,1265.63
2018-06-27T06:44:05.402Z,1147.50
2018-06-27T06:45:05.427Z,1136.25
2018-06-27T06:46:05.483Z,1080.00
2018-06-27T06:47:05.475Z,1051.88
2018-06-27T06:48:05.495Z,1035.00
2018-06-27T06:49:05.523Z,1029.38
2018-06-27T06:50:05.546Z,922.50
2018-06-27T06:51:05.570Z,888.75
2018-06-27T06:52:05.639Z,939.38
2018-06-27T06:53:05.615Z,973.13
2018-06-27T06:54:05.640Z,990.00
2018-06-27T06:55:05.665Z,905.63
2018-06-27T06:56:05.685Z,877.50
2018-06-27T06:57:05.709Z,877.50
2018-06-27T06:58:05.735Z,888.75
2018-06-27T06:59:05.760Z,905.63
2018-06-27T07:00:05.781Z,883.13
2018-06-27T07:01:05.808Z,832.50
2018-06-27T07:02:05.832Z,810.00
2018-06-27T07:03:05.855Z,781.88
2018-06-27T07:04:05.880Z,810.00
2018-06-27T07:05:05.904Z,843.75
2018-06-27T07:06:05.928Z,849.38
2018-06-27T07:07:05.954Z,821.25
2018-06-27T07:08:05.979Z,798.75
2018-06-27T07:09:06.003Z,793.13
2018-06-27T07:10:06.025Z,793.13
2018-06-27T07:11:06.125Z,793.13
2018-06-27T07:12:06.076Z,804.38
2018-06-27T07:13:06.099Z,821.25
2018-06-27T07:14:06.124Z,804.38
2018-06-27T07:15:06.152Z,776.25
2018-06-27T07:16:06.178Z,815.63
2018-06-27T07:17:06.199Z,815.63
2018-06-27T07:18:06.227Z,776.25
2018-06-27T07:19:06.254Z,736.88
2018-06-27T07:20:06.279Z,731.25
2018-06-27T07:21:06.303Z,736.88
2018-06-27T07:22:06.328Z,714.38
2018-06-27T07:23:06.354Z,720.00
2018-06-27T07:24:06.379Z,725.63
2018-06-27T07:25:06.406Z,725.63
2018-06-27T07:26:06.432Z,703.13
2018-06-27T07:27:06.455Z,686.25
2018-06-27T07:28:06.480Z,686.25
2018-06-27T07:29:06.506Z,680.63
2018-06-27T07:30:06.536Z,680.63
2018-06-27T07:31:06.559Z,686.25
2018-06-27T07:32:06.586Z,691.88
2018-06-27T07:33:06.613Z,658.13
2018-06-27T07:34:06.642Z,663.75
2018-06-27T07:35:06.664Z,652.50
2018-06-27T07:36:06.836Z,652.50
2018-06-27T07:37:06.718Z,635.63
2018-06-27T07:38:06.745Z,658.13
2018-06-27T07:39:06.773Z,635.63
2018-06-27T07:40:06.796Z,613.13
2018-06-27T07:41:06.823Z,590.63
2018-06-27T07:42:06.858Z,601.88
2018-06-27T07:43:06.878Z,641.25
2018-06-27T07:44:06.906Z,646.88
2018-06-27T07:45:06.930Z,641.25
2018-06-27T07:46:06.957Z,590.63
2018-06-27T07:47:06.991Z,618.75
2018-06-27T07:48:07.012Z,618.75
2018-06-27T07:49:07.040Z,652.50
2018-06-27T07:50:07.064Z,646.88
2018-06-27T07:51:07.092Z,641.25
2018-06-27T07:52:07.119Z,686.25
2018-06-27T07:53:07.149Z,691.88
2018-06-27T07:54:07.176Z,686.25
2018-06-27T07:55:07.259Z,697.50
2018-06-27T07:56:07.229Z,680.63
2018-06-27T07:57:07.257Z,675.00
2018-06-27T07:58:07.285Z,658.13
2018-06-27T07:59:07.309Z,691.88
2018-06-27T08:00:07.336Z,691.88
2018-06-27T08:01:07.364Z,770.63
2018-06-27T08:02:07.392Z,939.38
2018-06-27T08:03:07.424Z,1265.63
2018-06-27T08:04:07.448Z,1479.38
2018-06-27T08:05:07.478Z,1552.50
2018-06-27T08:06:07.507Z,1608.75
2018-06-27T08:07:07.533Z,1366.88
2018-06-27T08:08:07.559Z,1350.00
2018-06-27T08:09:07.587Z,1265.63
2018-06-27T08:10:07.727Z,1305.00
2018-06-27T08:11:07.647Z,1096.88
2018-06-27T08:12:07.685Z,1096.88
2018-06-27T08:13:07.701Z,1068.75
2018-06-27T08:14:07.729Z,1209.38
2018-06-27T08:15:07.766Z,1057.50
2018-06-27T08:16:07.787Z,1023.75
2018-06-27T08:17:07.815Z,1130.63
2018-06-27T08:18:07.906Z,1198.13
2018-06-27T08:19:07.871Z,1153.13
2018-06-27T08:20:07.903Z,1580.63
2018-06-27T08:21:07.925Z,1563.75
2018-06-27T08:22:07.956Z,1361.25
2018-06-27T08:23:07.987Z,1698.75
2018-06-27T08:24:08.012Z,1800.00
2018-06-27T08:25:08.038Z,1968.75
2018-06-27T08:26:08.137Z,1996.88
2018-06-27T08:27:08.099Z,1608.75
2018-06-27T08:28:08.125Z,1546.88
2018-06-27T08:29:08.150Z,1490.63
2018-06-27T08:30:08.180Z,1665.00
2018-06-27T08:31:08.213Z,2176.88
2018-06-27T08:32:08.236Z,2103.75
2018-06-27T08:33:08.262Z,2193.75
2018-06-27T08:34:08.291Z,2131.88
2018-06-27T08:35:08.324Z,2143.13
2018-06-27T08:36:08.347Z,2109.38
2018-06-27T08:37:08.382Z,2030.63
2018-06-27T08:38:08.407Z,1991.25
2018-06-27T08:39:08.437Z,2070.00
2018-06-27T08:40:08.467Z,2126.25
2018-06-27T08:41:08.494Z,2143.13
2018-06-27T08:42:08.523Z,2188.13
2018-06-27T08:43:08.549Z,2070.00
2018-06-27T08:44:08.580Z,2025.00
2018-06-27T08:45:08.608Z,2008.13
2018-06-27T08:46:08.639Z,1996.88
2018-06-27T08:47:08.665Z,2025.00
2018-06-27T08:48:08.694Z,2081.25
2018-06-27T08:49:08.726Z,2131.88
2018-06-27T08:50:08.753Z,2154.38
2018-06-27T08:51:08.788Z,2131.88
2018-06-27T08:52:08.812Z,2120.63
2018-06-27T08:53:08.845Z,2131.88
2018-06-27T08:54:08.876Z,2205.00
2018-06-27T08:55:08.908Z,2238.75
2018-06-27T08:56:08.931Z,2221.88
2018-06-27T08:57:08.964Z,2160.00
2018-06-27T08:58:08.994Z,2160.00
2018-06-27T08:59:09.023Z,2154.38
2018-06-27T09:00:09.055Z,2098.13
2018-06-27T09:01:09.085Z,2103.75
2018-06-27T09:02:09.115Z,2070.00
2018-06-27T09:03:09.145Z,2019.38
2018-06-27T09:06:09.239Z,1996.88
2018-06-27T09:07:09.270Z,1991.25
2018-06-27T09:08:09.301Z,2053.13
2018-06-27T09:09:09.328Z,2030.63
2018-06-27T09:10:09.361Z,2002.50
2018-06-27T09:11:09.392Z,1974.38
2018-06-27T09:12:09.423Z,1974.38
2018-06-27T09:13:09.461Z,1974.38
2018-06-27T09:14:09.487Z,1980.00
2018-06-27T09:15:09.521Z,1918.13
2018-06-27T09:16:10.761Z,1912.50
2018-06-27T09:17:09.585Z,1923.75
2018-06-27T09:18:09.611Z,1901.25
2018-06-27T09:19:09.643Z,1878.75
2018-06-27T09:20:09.674Z,1856.25
2018-06-27T09:21:09.706Z,1901.25
2018-06-27T09:23:09.772Z,1946.25
2018-06-27T09:24:09.796Z,2019.38
2018-06-27T09:25:09.831Z,2041.88
2018-06-27T09:26:09.860Z,2019.38
2018-06-27T09:27:09.896Z,2058.75
2018-06-27T09:28:09.929Z,2002.50
2018-06-27T09:29:09.958Z,1985.63
2018-06-27T09:30:09.989Z,1980.00
2018-06-27T09:31:10.048Z,1996.88
2018-06-27T09:32:10.051Z,2025.00
2018-06-27T09:33:10.088Z,2041.88
2018-06-27T09:34:10.213Z,2025.00
2018-06-27T09:35:10.149Z,1895.63
2018-06-27T09:36:10.180Z,2030.63
2018-06-27T09:37:10.208Z,1878.75
2018-06-27T09:38:10.243Z,1980.00
2018-06-27T09:39:10.277Z,1822.50
2018-06-27T09:40:10.303Z,1968.75
2018-06-27T09:41:10.339Z,1980.00
2018-06-27T09:42:10.367Z,1918.13
2018-06-27T09:43:10.402Z,1918.13
2018-06-27T09:44:10.428Z,1918.13
2018-06-27T09:45:10.462Z,1946.25
2018-06-27T09:46:10.495Z,1957.50
2018-06-27T09:47:10.528Z,1923.75
2018-06-27T09:48:10.560Z,1929.38
2018-06-27T09:49:10.593Z,1873.13
2018-06-27T09:50:10.618Z,1867.50
2018-06-27T09:51:10.651Z,1833.75
2018-06-27T09:52:10.683Z,1861.88
2018-06-27T09:53:10.713Z,1828.13
2018-06-27T09:54:10.746Z,1828.13
2018-06-27T09:55:10.776Z,1845.00
2018-06-27T09:56:10.805Z,1878.75
2018-06-27T09:57:10.877Z,1766.25
2018-06-27T09:58:10.870Z,1833.75
2018-06-27T09:59:10.905Z,1861.88
2018-06-27T10:00:10.933Z,1873.13
2018-06-27T10:01:10.962Z,1800.00
2018-06-27T10:02:11.051Z,1743.75
2018-06-27T10:03:11.029Z,1704.38
2018-06-27T10:04:11.059Z,1800.00
2018-06-27T10:05:11.088Z,1845.00
2018-06-27T10:06:11.122Z,1828.13
2018-06-27T10:07:11.151Z,1760.63
2018-06-27T10:08:11.182Z,1710.00
2018-06-27T10:10:11.250Z,1485.00
2018-06-27T10:11:11.280Z,1406.25
2018-06-27T10:12:11.311Z,1276.88
2018-06-27T10:13:11.403Z,1096.88
2018-06-27T10:14:11.373Z,945.00
2018-06-27T10:15:11.405Z,883.13
2018-06-27T10:16:11.436Z,832.50
2018-06-27T10:17:11.536Z,826.88
2018-06-27T10:18:11.499Z,832.50
2018-06-27T10:19:11.532Z,804.38
2018-06-27T10:20:11.560Z,838.13
2018-06-27T10:21:11.595Z,821.25
2018-06-27T10:22:11.629Z,810.00
2018-06-27T10:23:11.657Z,776.25
2018-06-27T10:24:11.689Z,781.88
2018-06-27T10:25:11.719Z,765.00
2018-06-27T10:26:11.756Z,765.00
2018-06-27T10:27:11.788Z,759.38
2018-06-27T10:28:11.816Z,759.38
2018-06-27T10:29:11.846Z,753.75
2018-06-27T10:30:11.882Z,759.38
2018-06-27T10:31:11.912Z,748.13
2018-06-27T10:32:11.941Z,742.50
2018-06-27T10:33:11.977Z,742.50
2018-06-27T10:34:12.005Z,748.13
2018-06-27T10:35:12.037Z,748.13
2018-06-27T10:36:12.076Z,753.75
2018-06-27T10:37:12.103Z,742.50
2018-06-27T10:38:12.136Z,753.75
2018-06-27T10:39:12.167Z,748.13
2018-06-27T10:40:12.199Z,742.50
2018-06-27T10:41:12.230Z,725.63
2018-06-27T10:42:12.265Z,759.38
2018-06-27T10:43:12.296Z,776.25
2018-06-27T10:44:12.328Z,776.25
2018-06-27T10:45:12.358Z,838.13
2018-06-27T10:46:12.389Z,877.50
2018-06-27T10:47:12.422Z,894.38
2018-06-27T10:48:12.455Z,883.13
2018-06-27T10:49:12.488Z,894.38
2018-06-27T10:50:12.518Z,922.50
2018-06-27T10:51:12.553Z,939.38
2018-06-27T10:52:12.586Z,388.13
2018-06-27T10:53:12.616Z,506.25
2018-06-27T10:54:12.646Z,1046.25
2018-06-27T10:55:12.680Z,1108.13
2018-06-27T10:56:12.713Z,1175.63
2018-06-27T10:57:12.744Z,348.75
2018-06-27T10:58:12.774Z,793.13
2018-06-27T10:59:12.808Z,1501.88
2018-06-27T11:00:12.840Z,1485.00
2018-06-27T11:01:12.877Z,1496.25
2018-06-27T11:02:12.904Z,1490.63
2018-06-27T11:03:12.938Z,1462.50
2018-06-27T11:04:12.966Z,1361.25
2018-06-27T11:05:13.038Z,1265.63
2018-06-27T11:06:13.031Z,1164.38
2018-06-27T11:07:13.059Z,1164.38
2018-06-27T11:08:13.091Z,1119.38
2018-06-27T11:09:13.124Z,1181.25
2018-06-27T11:10:13.158Z,1164.38
2018-06-27T11:11:13.195Z,1108.13
2018-06-27T11:12:13.219Z,1108.13
2018-06-27T11:13:13.251Z,1057.50
2018-06-27T11:14:13.315Z,1029.38
2018-06-27T11:15:13.320Z,511.88
2018-06-27T11:16:13.350Z,967.50
2018-06-27T11:17:13.383Z,950.63
2018-06-27T11:18:13.408Z,466.88
2018-06-27T11:19:13.443Z,950.63
2018-06-27T11:20:13.474Z,978.75
2018-06-27T11:21:13.507Z,984.38
2018-06-27T11:22:13.555Z,967.50
2018-06-27T11:23:13.572Z,916.88
2018-06-27T11:24:13.598Z,506.25
2018-06-27T11:25:13.635Z,320.63
2018-06-27T11:26:13.668Z,928.13
2018-06-27T11:27:13.695Z,905.63
2018-06-27T11:28:13.725Z,883.13
2018-06-27T11:29:13.760Z,883.13
2018-06-27T11:30:13.791Z,860.63
2018-06-27T11:31:13.822Z,849.38
2018-06-27T11:32:13.852Z,360.00
2018-06-27T11:33:13.883Z,371.25
2018-06-27T11:34:13.915Z,309.38
2018-06-27T11:35:13.949Z,573.75
2018-06-27T11:36:13.977Z,849.38
2018-06-27T11:37:14.011Z,832.50
2018-06-27T11:38:14.042Z,765.00
2018-06-27T11:39:14.074Z,770.63
2018-06-27T11:40:14.105Z,871.88
2018-06-27T11:41:14.137Z,860.63
2018-06-27T11:42:14.168Z,461.25
2018-06-27T11:43:14.267Z,849.38
2018-06-27T11:44:14.227Z,663.75
2018-06-27T11:45:14.258Z,517.50
2018-06-27T11:46:14.292Z,849.38
2018-06-27T11:47:14.320Z,843.75
2018-06-27T11:48:14.351Z,849.38
2018-06-27T11:49:14.385Z,781.88
2018-06-27T11:50:14.416Z,753.75
2018-06-27T11:51:14.446Z,770.63
2018-06-27T11:52:14.475Z,748.13
2018-06-27T11:53:14.545Z,720.00
2018-06-27T11:54:14.540Z,753.75
2018-06-27T11:55:14.569Z,804.38
2018-06-27T11:56:14.604Z,804.38
2018-06-27T11:57:14.631Z,804.38
2018-06-27T11:58:14.662Z,810.00
2018-06-27T11:59:14.696Z,815.63
2018-06-27T12:00:14.724Z,832.50
2018-06-27T12:01:14.756Z,703.13
2018-06-27T12:02:14.789Z,405.00
2018-06-27T12:03:14.821Z,855.00
2018-06-27T12:04:14.848Z,815.63
2018-06-27T12:05:14.882Z,815.63
2018-06-27T12:06:14.910Z,770.63
2018-06-27T12:07:14.944Z,759.38
2018-06-27T12:08:14.972Z,736.88
2018-06-27T12:09:15.006Z,731.25
2018-06-27T12:10:15.038Z,708.75
2018-06-27T12:11:15.070Z,720.00
2018-06-27T12:12:15.095Z,759.38
2018-06-27T12:13:15.129Z,781.88
2018-06-27T12:14:15.158Z,787.50
2018-06-27T12:15:15.192Z,804.38
2018-06-27T12:16:15.221Z,810.00
2018-06-27T12:17:15.250Z,376.88
2018-06-27T12:18:15.284Z,348.75
2018-06-27T12:19:15.313Z,354.38
2018-06-27T12:20:15.348Z,877.50
2018-06-27T12:21:15.375Z,804.38
2018-06-27T12:22:15.406Z,348.75
2018-06-27T12:23:15.434Z,787.50
2018-06-27T12:24:15.467Z,641.25
2018-06-27T12:25:15.497Z,461.25
2018-06-27T12:26:15.528Z,320.63
2018-06-27T12:27:15.555Z,281.25
2018-06-27T12:28:15.590Z,292.50
2018-06-27T12:29:15.617Z,399.38
2018-06-27T12:30:15.644Z,393.75
2018-06-27T12:31:15.677Z,399.38
2018-06-27T12:32:15.705Z,399.38
2018-06-27T12:33:15.735Z,393.75
2018-06-27T12:34:15.762Z,393.75
2018-06-27T12:35:15.792Z,388.13
2018-06-27T12:36:15.823Z,376.88
2018-06-27T12:37:15.852Z,365.63
2018-06-27T12:38:15.881Z,354.38
2018-06-27T12:39:15.908Z,354.38
2018-06-27T12:40:15.944Z,360.00
2018-06-27T12:41:15.969Z,376.88
2018-06-27T12:42:15.996Z,303.75
2018-06-27T12:43:16.023Z,309.38